EGAA 200050Z AUTO 19009KT 9999 NCD 11/08 Q1014 EGAA 200020Z AUTO 19010KT 160V220 9999 NCD 12/08 Q1014 EGAA 192350Z AUTO 19008KT 9999 NCD 11/08 Q1014 EGAA 192320Z AUTO 18009KT 9999 NCD 12/08 Q1014 EGAA 192250Z AUTO 18008KT 150V220 9999 NCD 12/08 Q1014 EGAA 192220Z AUTO 18008KT 140V220 9999 NCD 13/08 Q1014 EGAA 192150Z AUTO 18008KT 9999 NCD 13/08 Q1014 EGAA 192120Z AUTO 19009KT 160V220 9999 NCD 13/08 Q1014 EGAA 192050Z AUTO 19010KT 9999 NCD 14/08 Q1014 EGAA 192020Z AUTO 19009G19KT 160V220 9999 SCT045 14/08 Q1014 EGAA 191950Z AUTO 19008KT 160V230 9999 NCD 15/07 Q1014 EGAA 191920Z AUTO 20008KT 9999 NCD 15/07 Q1014 EGAA 191850Z AUTO 19009KT 160V230 9999 FEW044 16/08 Q1013 EGAA 191820Z AUTO 18008KT 9999 FEW044 16/09 Q1013 EGAA 191750Z AUTO 18008KT 150V210 9999 NCD 16/09 Q1013 EGAA 191720Z AUTO 18010KT 150V210 9999 NCD 17/08 Q1013 EGAA 191650Z AUTO 17010KT 150V210 9999 NCD 16/09 Q1014 EGAA 191620Z AUTO 18009KT 140V220 9999 NCD 16/08 Q1014 EGAA 191550Z AUTO 19012KT 160V220 9999 NCD 16/07 Q1014 EGAA 191520Z AUTO 20012KT 170V230 9999 FEW046 16/07 Q1014 EGAA 191450Z AUTO 21012KT 9999 SCT046 17/07 Q1014 EGAA 191420Z AUTO 21013KT 170V230 9999 SCT045 17/07 Q1014 EGAA 191350Z AUTO 22012KT 180V240 9999 FEW043 17/07 Q1014 EGAA 191320Z AUTO 22010KT 9999 FEW044 16/07 Q1014 EGAA 191250Z AUTO 22013KT 190V250 9999 SCT040 16/07 Q1014 EGAA 191220Z AUTO 21013KT 160V240 9999 FEW038 SCT044 16/07 Q1014 EGAA 191150Z AUTO 21013KT 9999 FEW038 SCT044 15/08 Q1014 EGAA 191120Z AUTO 23013KT 9999 BKN036 15/08 Q1014 EGAA 191050Z AUTO 22013KT 190V250 9999 FEW033 15/08 Q1014 EGAA 191020Z AUTO 23012KT 190V260 9999 FEW028 15/08 Q1014 EGAA 190950Z AUTO 22015G25KT 9999 FEW026 14/08 Q1014 EGAA 190920Z AUTO 22013KT 180V250 9999 FEW025 13/08 Q1014 EGAA 190850Z AUTO 20012KT 180V240 9999 NCD 12/07 Q1014 EGAA 190820Z AUTO 21012KT 9999 FEW040 12/07 Q1014 EGAA 190750Z AUTO 21012KT 170V230 9999 NCD 11/07 Q1014 EGAA 190720Z AUTO 20010KT 9999 NCD 11/07 Q1013 EGAA 190650Z AUTO 20009KT 9999 FEW036 10/07 Q1013 EGAA 190620Z AUTO 20009KT 9999 NCD 09/07 Q1013 EGAA 190550Z AUTO 20009KT 9999 NCD 08/07 Q1013 EGAA 190520Z AUTO 20009KT 9999 FEW022 08/07 Q1013 EGAA 190450Z AUTO 19007KT 160V220 9999 FEW018 08/07 Q1013 EGAA 190420Z AUTO 17005KT 140V210 9999 SCT018 08/07 Q1012 EGAA 190350Z AUTO 17007KT 9999 FEW015 08/07 Q1012 EGAA 190320Z AUTO 20007KT 9999 BKN013 BKN019 08/07 Q1012 EGAA 190250Z AUTO 18005KT 9999 BKN014 BKN020 08/07 Q1012 EGAA 190220Z AUTO 23007KT 9999 FEW014 09/07 Q1011 EGAA 190150Z AUTO 25007KT 9999 NCD 09/07 Q1011 EGAA 190120Z AUTO 24013KT 9999 NCD 10/07 Q1010 EGAA 190050Z AUTO 24015KT 9999 SCT014 BKN022 10/08 Q1010 EGAA 190020Z AUTO 23014KT 9999 SCT015 BKN036 11/09 Q1009 EGAA 182350Z AUTO 22012KT 9999 FEW015 SCT027 11/09 Q1009 RERA EGAA 182320Z AUTO 20009KT 9999 SCT024 11/09 Q1009 EGAA 182250Z AUTO 19010KT 9999 FEW047 11/09 Q1008 EGAA 182220Z AUTO 19012KT 9999 FEW044 11/09 Q1008 EGAA 182150Z AUTO 19010KT 9999 FEW024 12/09 Q1008 EGAA 182120Z AUTO 18010KT 150V210 9999 FEW029/// //////CB 12/10 Q1008 EGAA 182050Z AUTO 18011KT 160V220 9999 FEW024/// SCT039/// //////TCU 12/10 Q1008 EGAA 182020Z AUTO 19009KT 170V230 9999 -RA FEW029/// BKN042/// //////CB 11/08 Q1007 RERA EGAA 181950Z 18020G31KT 140V210 3500 RA BKN016CB 13/10 Q1007 EGAA 181920Z 16017G27KT 9999 FEW020 13/09 Q1006 EGAA 181850Z 17017G29KT 130V190 9999 FEW020 13/09 Q1007 EGAA 181820Z AUTO 17017G29KT 140V210 9999 NCD 13/10 Q1007 EGAA 181750Z 15015KT 9999 -RA FEW015 SCT045 13/10 Q1008 RERA EGAA 181720Z AUTO 15017KT 120V190 9999 FEW023 14/10 Q1008 EGAA 181650Z 16016G27KT 9999 FEW025 14/10 Q1009 EGAA 181620Z 17018KT 9999 FEW023 14/10 Q1009 EGAA 181550Z AUTO 17016KT 9999 FEW023 14/09 Q1009 EGAA 181520Z AUTO 17016G26KT 9999 NCD 15/09 Q1010 EGAA 181450Z AUTO 17016G28KT 140V200 9999 FEW023 14/09 Q1010 EGAA 181420Z 17017G27KT 150V210 9999 FEW026 14/09 Q1011 EGAA 181350Z AUTO 17019KT 140V200 9999 FEW023 14/09 Q1011 EGAA 181320Z AUTO 17017G31KT 130V200 9999 FEW024 SCT032 15/09 Q1012

METAR Messwerte "BELFAST/ALDERGRO" EGAA

Zurück zur Übersicht

Ortsname
Ländercode / m ü. NN
Zeit Temperatur Taupunkt Rel.
Luftfeuchte
Luftdruck:
Altimeter
NN
Station
Wind in Beaufort
(Knoten)
Sichtweite
(Meter)
Wolken
(Meter über Grund)
Wettererscheinung
BELFAST/ALDERGRO
GB 65
Fr 20.05. 02:5011882 %1014
1014
1006
S 3 (9)>= 10000  
BELFAST/ALDERGRO
GB 65
Fr 20.05. 02:2012876 %1014
1014
1006
S 3 (10)
SSO - SW
>= 10000  
BELFAST/ALDERGRO
GB 65
Fr 20.05. 01:5011882 %1014
1014
1006
S 3 (8)>= 10000  
BELFAST/ALDERGRO
GB 65
Fr 20.05. 01:2012876 %1014
1014
1006
S 3 (9)>= 10000  
BELFAST/ALDERGRO
GB 65
Fr 20.05. 00:5012876 %1014
1014
1006
S 3 (8)
SSO - SW
>= 10000  
BELFAST/ALDERGRO
GB 65
Fr 20.05. 00:2013872 %1014
1014
1006
S 3 (8)
SO - SW
>= 10000  
BELFAST/ALDERGRO
GB 65
Do 19.05. 23:5013872 %1014
1014
1006
S 3 (8)>= 10000  
BELFAST/ALDERGRO
GB 65
Do 19.05. 23:2013872 %1014
1014
1006
S 3 (9)
SSO - SW
>= 10000  
BELFAST/ALDERGRO
GB 65
Do 19.05. 22:5014867 %1014
1014
1006
S 3 (10)>= 10000  
BELFAST/ALDERGRO
GB 65
Do 19.05. 22:2014867 %1014
1014
1006
S 3 (9) - 5 (19)
SSO - SW
>= 10000Wolkig (1400) 
BELFAST/ALDERGRO
GB 65
Do 19.05. 21:5015759 %1014
1014
1006
S 3 (8)
SSO - SW
>= 10000  
BELFAST/ALDERGRO
GB 65
Do 19.05. 21:2015759 %1014
1014
1006
SSW 3 (8)>= 10000  
BELFAST/ALDERGRO
GB 65
Do 19.05. 20:5016859 %1013
1013
1005
S 3 (9)
SSO - SW
>= 10000Leicht bewölkt (1300) 
BELFAST/ALDERGRO
GB 65
Do 19.05. 20:2016963 %1013
1013
1005
S 3 (8)>= 10000Leicht bewölkt (1300) 
BELFAST/ALDERGRO
GB 65
Do 19.05. 19:5016963 %1013
1013
1005
S 3 (8)
SSO - SSW
>= 10000  
BELFAST/ALDERGRO
GB 65
Do 19.05. 19:2017855 %1013
1013
1005
S 3 (10)
SSO - SSW
>= 10000  
BELFAST/ALDERGRO
GB 65
Do 19.05. 18:5016963 %1014
1014
1006
S 3 (10)
SSO - SSW
>= 10000  
BELFAST/ALDERGRO
GB 65
Do 19.05. 18:2016859 %1014
1014
1006
S 3 (9)
SO - SW
>= 10000  
BELFAST/ALDERGRO
GB 65
Do 19.05. 17:5016755 %1014
1014
1006
S 4 (12)
SSO - SW
>= 10000  
BELFAST/ALDERGRO
GB 65
Do 19.05. 17:2016755 %1014
1014
1006
SSW 4 (12)
S - SW
>= 10000Leicht bewölkt (1400) 
BELFAST/ALDERGRO
GB 65
Do 19.05. 16:5017752 %1014
1014
1006
SSW 4 (12)>= 10000Wolkig (1400) 
BELFAST/ALDERGRO
GB 65
Do 19.05. 16:2017752 %1014
1014
1006
SSW 4 (13)
S - SW
>= 10000Wolkig (1400) 
BELFAST/ALDERGRO
GB 65
Do 19.05. 15:5017752 %1014
1014
1006
SW 4 (12)
S - WSW
>= 10000Leicht bewölkt (1300) 
BELFAST/ALDERGRO
GB 65
Do 19.05. 15:2016755 %1014
1014
1006
SW 3 (10)>= 10000Leicht bewölkt (1300) 
BELFAST/ALDERGRO
GB 65
Do 19.05. 14:5016755 %1014
1014
1006
SW 4 (13)
S - WSW
>= 10000Wolkig (1200) 
BELFAST/ALDERGRO
GB 65
Do 19.05. 14:2016755 %1014
1014
1006
SSW 4 (13)
SSO - WSW
>= 10000Wolkig (1300)
Leicht bewölkt (1200)
 
BELFAST/ALDERGRO
GB 65
Do 19.05. 13:5015863 %1014
1014
1006
SSW 4 (13)>= 10000Wolkig (1300)
Leicht bewölkt (1200)
 
BELFAST/ALDERGRO
GB 65
Do 19.05. 13:2015863 %1014
1014
1006
SW 4 (13)>= 10000Stark bewölkt (1100) 
BELFAST/ALDERGRO
GB 65
Do 19.05. 12:5015863 %1014
1014
1006
SW 4 (13)
S - WSW
>= 10000Leicht bewölkt (1000) 
BELFAST/ALDERGRO
GB 65
Do 19.05. 12:2015863 %1014
1014
1006
SW 4 (12)
S - W
>= 10000Leicht bewölkt (850) 
BELFAST/ALDERGRO
GB 65
Do 19.05. 11:5014867 %1014
1014
1006
SW 4 (15) - 6 (25)>= 10000Leicht bewölkt (790) 
BELFAST/ALDERGRO
GB 65
Do 19.05. 11:2013872 %1014
1014
1006
SW 4 (13)
S - WSW
>= 10000Leicht bewölkt (760) 
BELFAST/ALDERGRO
GB 65
Do 19.05. 10:5012771 %1014
1014
1006
SSW 4 (12)
S - WSW
>= 10000  
BELFAST/ALDERGRO
GB 65
Do 19.05. 10:2012771 %1014
1014
1006
SSW 4 (12)>= 10000Leicht bewölkt (1200) 
BELFAST/ALDERGRO
GB 65
Do 19.05. 09:5011776 %1014
1014
1006
SSW 4 (12)
S - SW
>= 10000  
BELFAST/ALDERGRO
GB 65
Do 19.05. 09:2011776 %1013
1013
1005
SSW 3 (10)>= 10000  
BELFAST/ALDERGRO
GB 65
Do 19.05. 08:5010782 %1013
1013
1005
SSW 3 (9)>= 10000Leicht bewölkt (1100) 
BELFAST/ALDERGRO
GB 65
Do 19.05. 08:209787 %1013
1013
1005
SSW 3 (9)>= 10000  
BELFAST/ALDERGRO
GB 65
Do 19.05. 07:508793 %1013
1013
1005
SSW 3 (9)>= 10000  
BELFAST/ALDERGRO
GB 65
Do 19.05. 07:208793 %1013
1013
1005
SSW 3 (9)>= 10000Leicht bewölkt (670) 
BELFAST/ALDERGRO
GB 65
Do 19.05. 06:508793 %1013
1013
1005
S 3 (7)
SSO - SW
>= 10000Leicht bewölkt (550) 
BELFAST/ALDERGRO
GB 65
Do 19.05. 06:208793 %1012
1012
1004
S 2 (5)
SO - SSW
>= 10000Wolkig (550) 
BELFAST/ALDERGRO
GB 65
Do 19.05. 05:508793 %1012
1012
1004
S 3 (7)>= 10000Leicht bewölkt (460) 
BELFAST/ALDERGRO
GB 65
Do 19.05. 05:208793 %1012
1012
1004
SSW 3 (7)>= 10000Stark bewölkt (580)
Stark bewölkt (400)
 
BELFAST/ALDERGRO
GB 65
Do 19.05. 04:508793 %1012
1012
1004
S 2 (5)>= 10000Stark bewölkt (610)
Stark bewölkt (430)
 
BELFAST/ALDERGRO
GB 65
Do 19.05. 04:209787 %1011
1011
1003
SW 3 (7)>= 10000Leicht bewölkt (430) 
BELFAST/ALDERGRO
GB 65
Do 19.05. 03:509787 %1011
1011
1003
WSW 3 (7)>= 10000  
BELFAST/ALDERGRO
GB 65
Do 19.05. 03:2010782 %1010
1010
1002
WSW 4 (13)>= 10000  
BELFAST/ALDERGRO
GB 65
Do 19.05. 02:5010887 %1010
1010
1002
WSW 4 (15)>= 10000Stark bewölkt (670)
Wolkig (430)
 
BELFAST/ALDERGRO
GB 65
Do 19.05. 02:2011987 %1009
1009
1001
SW 4 (14)>= 10000Stark bewölkt (1100)
Wolkig (460)
 
BELFAST/ALDERGRO
GB 65
Do 19.05. 01:5011987 %1009
1009
1001
SW 4 (12)>= 10000Wolkig (820)
Leicht bewölkt (460)
 
BELFAST/ALDERGRO
GB 65
Do 19.05. 01:2011987 %1009
1009
1001
SSW 3 (9)>= 10000Wolkig (730) 
BELFAST/ALDERGRO
GB 65
Do 19.05. 00:5011987 %1008
1008
1000
S 3 (10)>= 10000Leicht bewölkt (1400) 
BELFAST/ALDERGRO
GB 65
Do 19.05. 00:2011987 %1008
1008
1000
S 4 (12)>= 10000Leicht bewölkt (1300) 
BELFAST/ALDERGRO
GB 65
Mi 18.05. 23:5012982 %1008
1008
1000
S 3 (10)>= 10000Leicht bewölkt (730) 
BELFAST/ALDERGRO
GB 65
Mi 18.05. 23:20121088 %1008
1008
1000
S 3 (10)
SSO - SSW
>= 10000Leicht bewölkt (880) 
BELFAST/ALDERGRO
GB 65
Mi 18.05. 22:50121088 %1008
1008
1000
S 4 (11)
SSO - SW
>= 10000Wolkig (1200)
Leicht bewölkt (730)
 
BELFAST/ALDERGRO
GB 65
Mi 18.05. 22:2011882 %1007
1007
999
S 3 (9)
S - SW
>= 10000Stark bewölkt (1300)
Leicht bewölkt (880)
Regen (schwach)
BELFAST/ALDERGRO
GB 65
Mi 18.05. 21:50131082 %1007
1007
999
S 5 (20) - 7 (31)
SO - SSW
3500Stark bewölkt Cb (490)Regen
BELFAST/ALDERGRO
GB 65
Mi 18.05. 21:2013977 %1006
1006
998
SSO 5 (17) - 7 (27)>= 10000Leicht bewölkt (610) 
BELFAST/ALDERGRO
GB 65
Mi 18.05. 20:5013977 %1007
1007
999
S 5 (17) - 7 (29)
SO - S
>= 10000Leicht bewölkt (610) 
BELFAST/ALDERGRO
GB 65
Mi 18.05. 20:20131082 %1007
1007
999
S 5 (17) - 7 (29)
SO - SSW
>= 10000  
BELFAST/ALDERGRO
GB 65
Mi 18.05. 19:50131082 %1008
1008
1000
SSO 4 (15)>= 10000Wolkig (1400)
Leicht bewölkt (460)
Regen (schwach)
BELFAST/ALDERGRO
GB 65
Mi 18.05. 19:20141077 %1008
1008
1000
SSO 5 (17)
OSO - S
>= 10000Leicht bewölkt (700) 
BELFAST/ALDERGRO
GB 65
Mi 18.05. 18:50141077 %1009
1009
1001
SSO 5 (16) - 7 (27)>= 10000Leicht bewölkt (760) 
BELFAST/ALDERGRO
GB 65
Mi 18.05. 18:20141077 %1009
1009
1001
S 5 (18)>= 10000Leicht bewölkt (700) 
BELFAST/ALDERGRO
GB 65
Mi 18.05. 17:5014972 %1009
1009
1001
S 5 (16)>= 10000Leicht bewölkt (700) 
BELFAST/ALDERGRO
GB 65
Mi 18.05. 17:2015967 %1010
1010
1002
S 5 (16) - 6 (26)>= 10000  
BELFAST/ALDERGRO
GB 65
Mi 18.05. 16:5014972 %1010
1010
1002
S 5 (16) - 7 (28)
SO - SSW
>= 10000Leicht bewölkt (700) 
BELFAST/ALDERGRO
GB 65
Mi 18.05. 16:2014972 %1011
1011
1003
S 5 (17) - 7 (27)
SSO - SSW
>= 10000Leicht bewölkt (790) 
BELFAST/ALDERGRO
GB 65
Mi 18.05. 15:5014972 %1011
1011
1003
S 5 (19)
SO - SSW
>= 10000Leicht bewölkt (700) 
BELFAST/ALDERGRO
GB 65
Mi 18.05. 15:2015967 %1012
1012
1004
S 5 (17) - 7 (31)
SO - SSW
>= 10000Wolkig (980)
Leicht bewölkt (730)
 

Altimeter: Einstellung am Altimeter (Höhenmesser), die Höhe 0 muss auf diesen Luftdruckwert zeigen, damit das Gerät die Stationshöhe richtig anzeigt.

NN: Luftdruck reduziert auf "Normal Null", auf Meereshöhe, dieser von der Temperatur abhängige Wert wird bisweilen unkorrekt einfach als "Luftdruck" bezeichnet. Eigentlich nur eine fiktive Größe, die es erlaubt, Stationen auf unterschiedlichen Höhen miteinander zu vergleichen.

Station: Realer Luftdruck an der Station.